createdAt,value
2019-01-14T00:00:18.459Z,99018.52
2019-01-14T00:02:47.023Z,99018.84
2019-01-14T00:05:15.511Z,99017.52
2019-01-14T00:07:43.962Z,99034.73
2019-01-14T00:10:12.518Z,99041.14
2019-01-14T00:12:40.939Z,99044.02
2019-01-14T00:15:10.019Z,99047.14
2019-01-14T00:17:38.570Z,99046.55
2019-01-14T00:20:12.959Z,99049.56
2019-01-14T00:22:41.482Z,99048.42
2019-01-14T00:25:10.140Z,99052.17
2019-01-14T00:27:38.562Z,99062.09
2019-01-14T00:30:15.523Z,99059.76
2019-01-14T00:32:44.005Z,99057.81
2019-01-14T00:35:12.567Z,99071.95
2019-01-14T00:37:41.093Z,99069.94
2019-01-14T00:40:12.852Z,99079.30
2019-01-14T00:42:41.738Z,99087.09
2019-01-14T00:45:10.523Z,99094.34
2019-01-14T00:47:38.941Z,99105.69
2019-01-14T00:50:10.394Z,99107.17
2019-01-14T00:52:39.233Z,99115.80
2019-01-14T00:55:08.895Z,99111.77
2019-01-14T00:57:37.453Z,99103.77
2019-01-14T01:00:18.129Z,99111.77
2019-01-14T01:02:46.681Z,99110.41
2019-01-14T01:05:15.311Z,99113.16
2019-01-14T01:07:44.002Z,99117.93
2019-01-14T01:10:15.307Z,99126.66
2019-01-14T01:12:43.810Z,99131.38
2019-01-14T01:15:15.291Z,99144.00
2019-01-14T01:17:43.714Z,99141.88
2019-01-14T01:20:14.838Z,99140.63
2019-01-14T01:22:43.434Z,99146.42
2019-01-14T01:25:12.392Z,99143.27
2019-01-14T01:27:40.804Z,99135.27
2019-01-14T01:30:14.529Z,99147.29
2019-01-14T01:32:42.941Z,99150.21
2019-01-14T01:35:13.698Z,99162.20
2019-01-14T01:37:42.544Z,99168.84
2019-01-14T01:40:14.102Z,99174.51
2019-01-14T01:42:42.527Z,99178.20
2019-01-14T01:45:11.932Z,99187.39
2019-01-14T01:47:40.352Z,99204.04
2019-01-14T01:50:11.914Z,99187.61
2019-01-14T01:52:40.425Z,99189.50
2019-01-14T01:55:09.882Z,99201.18
2019-01-14T01:57:38.395Z,99194.87
2019-01-14T02:00:15.392Z,99205.26
2019-01-14T02:02:43.819Z,99207.49
2019-01-14T02:05:12.926Z,99226.41
2019-01-14T02:07:41.545Z,99232.34
2019-01-14T02:10:13.278Z,99234.87
2019-01-14T02:12:41.765Z,99235.14
2019-01-14T02:15:12.563Z,99236.41
2019-01-14T02:17:41.825Z,99245.83
2019-01-14T02:20:13.283Z,99266.02
2019-01-14T02:22:41.923Z,99274.70
2019-01-14T02:25:11.322Z,99282.85
2019-01-14T02:27:39.742Z,99290.16
2019-01-14T02:30:11.565Z,99279.70
2019-01-14T02:32:39.983Z,99297.41
2019-01-14T02:35:09.540Z,99289.47
2019-01-14T02:37:38.187Z,99298.16
2019-01-14T02:40:09.651Z,99304.72
2019-01-14T02:42:38.097Z,99313.36
2019-01-14T02:45:08.285Z,99327.78
2019-01-14T02:47:36.699Z,99318.24
2019-01-14T02:50:08.153Z,99321.63
2019-01-14T02:52:39.741Z,99322.37
2019-01-14T02:55:08.637Z,99312.82
2019-01-14T02:57:37.057Z,99309.50
2019-01-14T03:00:11.265Z,99306.74
2019-01-14T03:02:39.731Z,99310.98
2019-01-14T03:05:08.295Z,99315.20
2019-01-14T03:07:36.955Z,99328.18
2019-01-14T03:10:08.812Z,99341.41
2019-01-14T03:12:37.234Z,99351.59
2019-01-14T03:15:08.635Z,99343.73
2019-01-14T03:17:37.124Z,99332.20
2019-01-14T03:20:08.595Z,99322.16
2019-01-14T03:22:37.158Z,99318.59
2019-01-14T03:25:06.801Z,99315.30
2019-01-14T03:27:35.216Z,99316.22
2019-01-14T03:30:05.947Z,99303.73
2019-01-14T03:32:34.369Z,99294.08
2019-01-14T03:35:02.806Z,99291.48
2019-01-14T03:37:31.310Z,99290.16
2019-01-14T03:39:59.731Z,99294.30
2019-01-14T03:42:28.226Z,99289.14
2019-01-14T03:44:56.675Z,99296.11
2019-01-14T03:47:25.095Z,99313.58
2019-01-14T03:49:53.584Z,99309.90
2019-01-14T03:52:22.026Z,99317.54
2019-01-14T03:54:50.514Z,99316.41
2019-01-14T03:57:18.932Z,99318.05
2019-01-14T04:00:08.913Z,99300.75
2019-01-14T04:02:37.329Z,99318.85
2019-01-14T04:05:07.594Z,99326.95
2019-01-14T04:07:36.103Z,99334.01
2019-01-14T04:10:07.803Z,99329.02
2019-01-14T04:12:36.228Z,99337.84
2019-01-14T04:15:06.489Z,99338.10
2019-01-14T04:17:34.904Z,99347.05
2019-01-14T04:20:04.759Z,99349.29
2019-01-14T04:22:33.286Z,99365.25
2019-01-14T04:25:01.707Z,99378.59
2019-01-14T04:27:30.123Z,99385.16
2019-01-14T04:29:58.796Z,99377.16
2019-01-14T04:32:27.211Z,99377.47
2019-01-14T04:34:55.697Z,99382.46
2019-01-14T04:37:24.150Z,99377.58
2019-01-14T04:39:52.639Z,99377.73
2019-01-14T04:42:21.068Z,99380.67
2019-01-14T04:44:49.506Z,99383.73
2019-01-14T04:47:17.931Z,99390.44
2019-01-14T04:49:46.347Z,99398.37
2019-01-14T04:52:14.797Z,99392.97
2019-01-14T04:54:43.218Z,99393.88
2019-01-14T04:57:11.634Z,99404.36
2019-01-14T04:59:40.084Z,99399.69
2019-01-14T05:02:08.503Z,99400.99
2019-01-14T05:04:36.993Z,99406.64
2019-01-14T05:07:05.548Z,99411.78
2019-01-14T05:09:34.034Z,99416.41
2019-01-14T05:12:02.451Z,99416.20
2019-01-14T05:14:30.897Z,99412.38
2019-01-14T05:16:59.315Z,99406.34
2019-01-14T05:19:27.731Z,99416.52
2019-01-14T05:21:56.176Z,99419.52
2019-01-14T05:24:24.665Z,99419.05
2019-01-14T05:26:53.078Z,99418.70
2019-01-14T05:29:21.603Z,99427.91
2019-01-14T05:31:50.021Z,99427.02
2019-01-14T05:34:18.517Z,99431.24
2019-01-14T05:36:47.043Z,99429.93
2019-01-14T05:39:15.507Z,99438.36
2019-01-14T05:41:43.925Z,99440.26
2019-01-14T05:44:12.459Z,99432.11
2019-01-14T05:46:40.873Z,99437.71
2019-01-14T05:49:09.294Z,99435.12
2019-01-14T05:51:37.743Z,99440.81
2019-01-14T05:54:06.191Z,99445.48
2019-01-14T05:56:34.647Z,99449.56
2019-01-14T05:59:03.114Z,99466.17
2019-01-14T06:01:31.538Z,99452.33
2019-01-14T06:03:59.954Z,99462.02
2019-01-14T06:06:28.407Z,99471.62
2019-01-14T06:08:56.824Z,99486.77
2019-01-14T06:11:25.238Z,99490.88
2019-01-14T06:13:53.718Z,99493.86
2019-01-14T06:16:22.152Z,99513.67
2019-01-14T06:18:50.754Z,99513.67
2019-01-14T06:21:19.282Z,99504.78
2019-01-14T06:23:47.707Z,99508.06
2019-01-14T06:26:16.135Z,99510.30
2019-01-14T06:28:44.647Z,99507.16
2019-01-14T06:31:13.086Z,99523.05
2019-01-14T06:33:41.528Z,99535.63
2019-01-14T06:36:10.222Z,99529.95
2019-01-14T06:38:38.637Z,99527.73
2019-01-14T06:41:07.058Z,99534.08
2019-01-14T06:43:35.624Z,99528.80
2019-01-14T06:46:04.209Z,99539.94
2019-01-14T06:48:32.640Z,99549.17
2019-01-14T06:51:01.154Z,99550.03
2019-01-14T06:53:29.642Z,99567.53
2019-01-14T06:55:58.133Z,99559.04
2019-01-14T06:58:26.606Z,99568.47
2019-01-14T07:00:55.022Z,99579.98
2019-01-14T07:03:23.530Z,99582.20
2019-01-14T07:05:52.054Z,99580.39
2019-01-14T07:08:20.475Z,99593.70
2019-01-14T07:10:49.337Z,99601.69
2019-01-14T07:13:17.814Z,99599.73
2019-01-14T07:15:46.303Z,99601.05
2019-01-14T07:18:14.793Z,99601.77
2019-01-14T07:20:43.249Z,99609.23
2019-01-14T07:23:11.660Z,99606.06
2019-01-14T07:25:40.078Z,99615.56
2019-01-14T07:28:08.607Z,99613.45
2019-01-14T07:30:37.095Z,99614.88
2019-01-14T07:33:05.510Z,99619.56
2019-01-14T07:35:33.955Z,99626.58
2019-01-14T07:38:06.731Z,99626.31
2019-01-14T07:40:32.573Z,99631.85
2019-01-14T07:43:01.015Z,99630.86
2019-01-14T07:45:29.502Z,99634.36
2019-01-14T07:47:57.990Z,99642.75
2019-01-14T07:50:26.517Z,99638.86
2019-01-14T07:52:55.005Z,99650.63
2019-01-14T07:55:23.562Z,99648.28
2019-01-14T07:57:52.002Z,99656.66
2019-01-14T08:00:22.654Z,99667.47
2019-01-14T08:02:51.247Z,99683.06
2019-01-14T08:05:19.831Z,99680.91
2019-01-14T08:07:48.348Z,99684.16
2019-01-14T08:10:17.338Z,99679.84
2019-01-14T08:12:45.785Z,99682.00
2019-01-14T08:15:16.754Z,99684.75
2019-01-14T08:17:45.169Z,99676.76
2019-01-14T08:20:13.768Z,99682.27
2019-01-14T08:22:42.345Z,99680.05
2019-01-14T08:25:13.362Z,99682.57
2019-01-14T08:27:41.995Z,99683.06
2019-01-14T08:30:18.572Z,99680.42
2019-01-14T08:32:47.107Z,99695.13
2019-01-14T08:35:15.668Z,99695.92
2019-01-14T08:37:44.223Z,99692.37
2019-01-14T08:40:14.923Z,99697.31
2019-01-14T08:42:43.407Z,99699.84
2019-01-14T08:45:13.059Z,99705.08
2019-01-14T08:47:41.659Z,99714.48
2019-01-14T08:50:13.188Z,99717.08
2019-01-14T08:52:41.675Z,99725.42
2019-01-14T08:55:10.257Z,99722.17
2019-01-14T08:57:38.814Z,99721.00
2019-01-14T09:00:15.905Z,99724.91
2019-01-14T09:02:44.393Z,99719.09
2019-01-14T09:05:13.249Z,99717.80
2019-01-14T09:07:41.761Z,99715.11
2019-01-14T09:10:13.223Z,99716.02
2019-01-14T09:12:41.658Z,99714.48
2019-01-14T09:15:13.148Z,99715.46
2019-01-14T09:17:41.767Z,99725.65
2019-01-14T09:20:13.286Z,99720.77
2019-01-14T09:22:41.811Z,99727.03
2019-01-14T09:25:10.793Z,99733.61
2019-01-14T09:27:39.319Z,99732.85
2019-01-14T09:30:16.677Z,99736.13
2019-01-14T09:32:45.188Z,99729.72
2019-01-14T09:35:13.765Z,99731.00
2019-01-14T09:37:42.378Z,99732.47
2019-01-14T09:40:13.806Z,99725.65
2019-01-14T09:42:42.226Z,99720.82
2019-01-14T09:45:10.954Z,99725.34
2019-01-14T09:47:39.437Z,99727.96
2019-01-14T09:50:10.802Z,99725.52
2019-01-14T09:52:39.399Z,99730.59
2019-01-14T09:55:16.207Z,99738.44
2019-01-14T09:57:44.747Z,99741.94
2019-01-14T10:00:13.302Z,99739.38
2019-01-14T10:02:42.258Z,99738.44
2019-01-14T10:05:16.077Z,99736.95
2019-01-14T10:07:44.568Z,99734.31
2019-01-14T10:10:15.222Z,99738.16
2019-01-14T10:12:43.891Z,99739.89
2019-01-14T10:15:15.189Z,99742.80
2019-01-14T10:17:44.152Z,99751.84
2019-01-14T10:20:12.903Z,99754.61
2019-01-14T10:22:41.391Z,99754.66
2019-01-14T10:25:09.954Z,99762.34
2019-01-14T10:27:38.547Z,99762.00
2019-01-14T10:30:15.574Z,99769.36
2019-01-14T10:32:44.319Z,99766.74
2019-01-14T10:35:12.973Z,99766.13
2019-01-14T10:37:41.462Z,99758.69
2019-01-14T10:40:17.169Z,99756.34
2019-01-14T10:42:45.819Z,99756.26
2019-01-14T10:45:22.049Z,99761.09
2019-01-14T10:47:50.540Z,99763.60
2019-01-14T10:50:19.398Z,99774.58
2019-01-14T10:52:47.983Z,99785.73
2019-01-14T10:55:16.542Z,99818.56
2019-01-14T10:57:45.102Z,99866.14
2019-01-14T11:00:22.306Z,99863.55
2019-01-14T11:02:50.872Z,99860.05
2019-01-14T11:05:23.111Z,99870.69
2019-01-14T11:07:52.083Z,99877.41
2019-01-14T11:10:20.710Z,99879.02
2019-01-14T11:12:49.366Z,99870.52
2019-01-14T11:15:20.306Z,99882.90
2019-01-14T11:17:48.789Z,99868.30
2019-01-14T11:20:22.742Z,99881.39
2019-01-14T11:22:51.306Z,99880.89
2019-01-14T11:25:20.262Z,99884.41
2019-01-14T11:27:48.824Z,99893.13
2019-01-14T11:30:20.449Z,99897.03
2019-01-14T11:32:48.934Z,99905.52
2019-01-14T11:35:17.603Z,99908.20
2019-01-14T11:37:46.132Z,99903.70
2019-01-14T11:40:18.002Z,99900.46
2019-01-14T11:42:46.418Z,99905.77
2019-01-14T11:45:15.243Z,99910.45
2019-01-14T11:47:43.794Z,99926.28
2019-01-14T11:50:14.651Z,99921.81
2019-01-14T11:52:43.430Z,99918.98
2019-01-14T11:55:12.124Z,99916.98
2019-01-14T11:57:40.607Z,99921.64
2019-01-14T12:00:15.083Z,99932.88
2019-01-14T12:02:43.504Z,99937.17
2019-01-14T12:05:12.062Z,99944.81
2019-01-14T12:07:40.911Z,99949.39
2019-01-14T12:10:10.464Z,99940.77
2019-01-14T12:12:38.950Z,99944.92
2019-01-14T12:15:13.392Z,99942.95
2019-01-14T12:17:41.895Z,99936.41
2019-01-14T12:20:13.035Z,99944.82
2019-01-14T12:22:41.552Z,99952.02
2019-01-14T12:25:10.325Z,99954.94
2019-01-14T12:27:38.838Z,99946.86
2019-01-14T12:30:22.749Z,99938.07
2019-01-14T12:32:51.179Z,99944.95
2019-01-14T12:35:19.588Z,99951.12
2019-01-14T12:37:48.100Z,99955.67
2019-01-14T12:40:16.653Z,99956.14
2019-01-14T12:42:45.072Z,99958.20
2019-01-14T12:45:21.178Z,99944.34
2019-01-14T12:47:49.667Z,99954.37
2019-01-14T12:50:19.954Z,99970.35
2019-01-14T12:52:48.535Z,99964.08
2019-01-14T12:55:18.793Z,99948.67
2019-01-14T12:57:47.486Z,99954.13
2019-01-14T13:00:18.290Z,99958.82
2019-01-14T13:02:46.848Z,99960.60
2019-01-14T13:05:16.805Z,99965.74
2019-01-14T13:07:45.418Z,99971.71
2019-01-14T13:10:15.182Z,99978.19
2019-01-14T13:12:43.781Z,99982.98
2019-01-14T13:15:14.865Z,99991.11
2019-01-14T13:17:43.354Z,99992.68
2019-01-14T13:20:14.426Z,99992.41
2019-01-14T13:22:43.051Z,99996.16
2019-01-14T13:25:11.523Z,99992.40
2019-01-14T13:27:40.278Z,99995.02
2019-01-14T13:30:23.150Z,99991.33
2019-01-14T13:32:51.643Z,100008.44
2019-01-14T13:35:20.177Z,100015.52
2019-01-14T13:37:49.100Z,100027.31
2019-01-14T13:40:17.841Z,100017.64
2019-01-14T13:42:46.332Z,100020.31
2019-01-14T13:45:19.577Z,100021.02
2019-01-14T13:47:48.440Z,100022.03
2019-01-14T13:50:21.996Z,100027.45
2019-01-14T13:52:50.600Z,100029.95
2019-01-14T13:55:20.471Z,100043.48
2019-01-14T13:57:48.960Z,100052.09
2019-01-14T14:00:24.868Z,100066.58
2019-01-14T14:02:53.431Z,100085.95
2019-01-14T14:05:21.924Z,100097.28
2019-01-14T14:07:50.442Z,100091.84
2019-01-14T14:10:24.172Z,100088.28
2019-01-14T14:12:52.664Z,100088.81
2019-01-14T14:15:21.631Z,100090.62
2019-01-14T14:17:50.127Z,100099.17
2019-01-14T14:20:19.208Z,100091.05
2019-01-14T14:22:48.238Z,100103.52
2019-01-14T14:25:16.723Z,100109.10
2019-01-14T14:27:45.150Z,100114.53
2019-01-14T14:30:19.855Z,100107.76
2019-01-14T14:32:48.276Z,100113.92
2019-01-14T14:35:16.841Z,100116.80
2019-01-14T14:37:45.509Z,100113.16
2019-01-14T14:40:14.276Z,100117.05
2019-01-14T14:42:42.770Z,100120.24
2019-01-14T14:45:12.815Z,100120.69
2019-01-14T14:47:41.242Z,100128.00
2019-01-14T14:50:17.540Z,100133.97
2019-01-14T14:52:46.401Z,100128.77
2019-01-14T14:55:14.958Z,100139.61
2019-01-14T14:57:43.555Z,100140.98
2019-01-14T15:00:14.909Z,100146.39
2019-01-14T15:02:43.332Z,100157.02
2019-01-14T15:05:12.427Z,100166.13
2019-01-14T15:07:40.843Z,100168.02
2019-01-14T15:10:11.896Z,100166.84
2019-01-14T15:12:40.446Z,100162.23
2019-01-14T15:15:11.297Z,100176.05
2019-01-14T15:17:39.714Z,100187.95
2019-01-14T15:20:14.238Z,100195.45
2019-01-14T15:22:42.733Z,100192.70
2019-01-14T15:25:11.156Z,100204.17
2019-01-14T15:27:39.616Z,100208.91
2019-01-14T15:30:16.972Z,100211.59
2019-01-14T15:32:45.530Z,100215.25
2019-01-14T15:35:14.487Z,100222.18
2019-01-14T15:37:43.055Z,100206.34
2019-01-14T15:40:14.357Z,100217.70
2019-01-14T15:42:42.863Z,100220.81
2019-01-14T15:45:17.017Z,100225.70
2019-01-14T15:47:45.483Z,100230.13
2019-01-14T15:50:14.139Z,100226.81
2019-01-14T15:52:42.637Z,100239.41
2019-01-14T15:55:16.712Z,100252.05
2019-01-14T15:57:45.212Z,100264.27
2019-01-14T16:00:16.683Z,100265.66
2019-01-14T16:02:45.524Z,100279.77
2019-01-14T16:05:14.707Z,100291.17
2019-01-14T16:07:43.199Z,100294.47
2019-01-14T16:10:14.569Z,100307.70
2019-01-14T16:12:42.989Z,100306.03
2019-01-14T16:15:11.840Z,100305.59
2019-01-14T16:17:40.515Z,100304.18
2019-01-14T16:20:14.403Z,100304.73
2019-01-14T16:22:43.062Z,100308.14
2019-01-14T16:25:11.955Z,100310.47
2019-01-14T16:27:40.459Z,100313.11
2019-01-14T16:30:20.456Z,100320.16
2019-01-14T16:32:48.920Z,100328.08
2019-01-14T16:35:17.436Z,100324.89
2019-01-14T16:37:46.019Z,100328.54
2019-01-14T16:40:18.214Z,100328.86
2019-01-14T16:42:44.745Z,100337.80
2019-01-14T16:45:21.662Z,100341.73
2019-01-14T16:47:50.071Z,100337.78
2019-01-14T16:50:18.751Z,100346.53
2019-01-14T16:52:47.393Z,100357.09
2019-01-14T16:55:17.506Z,100358.77
2019-01-14T16:57:45.929Z,100370.66
2019-01-14T17:00:17.192Z,100385.63
2019-01-14T17:02:45.874Z,100379.02
2019-01-14T17:05:15.444Z,100388.68
2019-01-14T17:07:43.972Z,100395.67
2019-01-14T17:10:14.526Z,100400.08
2019-01-14T17:12:43.187Z,100398.33
2019-01-14T17:15:11.806Z,100409.76
2019-01-14T17:17:40.226Z,100405.78
2019-01-14T17:20:17.550Z,100407.52
2019-01-14T17:22:46.141Z,100407.53
2019-01-14T17:25:14.818Z,100405.80
2019-01-14T17:27:45.139Z,100411.91
2019-01-14T17:30:15.889Z,100418.06
2019-01-14T17:32:44.463Z,100422.03
2019-01-14T17:35:13.383Z,100416.77
2019-01-14T17:37:41.871Z,100417.21
2019-01-14T17:40:13.213Z,100412.34
2019-01-14T17:42:41.663Z,100422.86
2019-01-14T17:45:11.027Z,100425.11
2019-01-14T17:47:39.742Z,100427.75
2019-01-14T17:50:18.912Z,100430.79
2019-01-14T17:52:47.471Z,100433.00
2019-01-14T17:55:16.434Z,100426.87
2019-01-14T17:57:44.956Z,100437.41
2019-01-14T18:00:16.420Z,100434.75
2019-01-14T18:02:44.907Z,100435.61
2019-01-14T18:05:14.312Z,100437.39
2019-01-14T18:07:42.792Z,100437.39
2019-01-14T18:10:14.250Z,100441.78
2019-01-14T18:12:42.754Z,100442.62
2019-01-14T18:15:11.315Z,100455.80
2019-01-14T18:17:39.813Z,100462.38
2019-01-14T18:20:11.437Z,100453.63
2019-01-14T18:22:39.848Z,100468.54
2019-01-14T18:25:08.506Z,100466.77
2019-01-14T18:27:37.138Z,100466.78
2019-01-14T18:30:11.332Z,100470.70
2019-01-14T18:32:39.839Z,100478.59
2019-01-14T18:35:08.511Z,100484.31
2019-01-14T18:37:36.935Z,100482.11
2019-01-14T18:40:10.777Z,100487.41
2019-01-14T18:42:39.236Z,100494.84
2019-01-14T18:45:10.363Z,100497.02
2019-01-14T18:47:38.959Z,100496.61
2019-01-14T18:50:18.889Z,100497.04
2019-01-14T18:52:47.935Z,100504.95
2019-01-14T18:55:16.508Z,100508.02
2019-01-14T18:57:44.967Z,100510.64
2019-01-14T19:00:21.847Z,100509.77
2019-01-14T19:02:50.531Z,100506.69
2019-01-14T19:05:20.156Z,100513.27
2019-01-14T19:07:49.015Z,100511.94
2019-01-14T19:10:17.627Z,100515.90
2019-01-14T19:12:46.054Z,100517.66
2019-01-14T19:15:16.619Z,100519.42
2019-01-14T19:17:45.228Z,100522.91
2019-01-14T19:20:16.488Z,100520.28
2019-01-14T19:22:45.042Z,100535.22
2019-01-14T19:25:14.495Z,100539.60
2019-01-14T19:27:42.916Z,100540.44
2019-01-14T19:30:14.480Z,100559.30
2019-01-14T19:32:42.939Z,100557.57
2019-01-14T19:35:11.498Z,100559.67
2019-01-14T19:37:39.947Z,100559.19
2019-01-14T19:40:11.944Z,100556.64
2019-01-14T19:42:40.451Z,100572.89
2019-01-14T19:45:10.813Z,100574.14
2019-01-14T19:47:39.371Z,100574.20
2019-01-14T19:50:16.400Z,100582.50
2019-01-14T19:52:44.944Z,100575.48
2019-01-14T19:55:13.718Z,100577.24
2019-01-14T19:57:42.218Z,100575.05
2019-01-14T20:00:17.024Z,100578.61
2019-01-14T20:02:45.455Z,100583.38
2019-01-14T20:05:14.020Z,100589.98
2019-01-14T20:07:42.478Z,100592.23
2019-01-14T20:10:14.074Z,100585.19
2019-01-14T20:12:42.629Z,100588.73
2019-01-14T20:15:14.213Z,100608.43
2019-01-14T20:17:42.627Z,100603.66
2019-01-14T20:20:11.705Z,100605.39
2019-01-14T20:22:40.161Z,100617.68
2019-01-14T20:25:10.925Z,100610.23
2019-01-14T20:27:39.517Z,100612.84
2019-01-14T20:30:16.583Z,100617.69
2019-01-14T20:32:45.008Z,100604.97
2019-01-14T20:35:13.671Z,100615.93
2019-01-14T20:37:42.187Z,100611.11
2019-01-14T20:40:13.895Z,100614.16
2019-01-14T20:42:42.394Z,100618.13
2019-01-14T20:45:15.965Z,100616.83
2019-01-14T20:47:44.527Z,100617.25
2019-01-14T20:50:15.446Z,100615.89
2019-01-14T20:52:43.954Z,100611.06
2019-01-14T20:55:12.525Z,100619.40
2019-01-14T20:57:41.026Z,100630.36
2019-01-14T21:00:19.067Z,100630.39
2019-01-14T21:02:47.586Z,100634.30
2019-01-14T21:05:16.245Z,100632.08
2019-01-14T21:07:45.041Z,100636.50
2019-01-14T21:10:15.195Z,100634.75
2019-01-14T21:12:43.683Z,100632.59
2019-01-14T21:15:12.750Z,100635.65
2019-01-14T21:17:41.248Z,100637.44
2019-01-14T21:20:12.947Z,100638.28
2019-01-14T21:22:41.395Z,100634.77
2019-01-14T21:25:09.954Z,100641.33
2019-01-14T21:27:38.382Z,100640.89
2019-01-14T21:30:09.893Z,100649.22
2019-01-14T21:32:38.381Z,100646.59
2019-01-14T21:35:08.247Z,100650.56
2019-01-14T21:37:36.770Z,100651.88
2019-01-14T21:40:08.299Z,100643.11
2019-01-14T21:42:36.716Z,100648.37
2019-01-14T21:45:08.274Z,100647.94
2019-01-14T21:47:36.768Z,100645.70
2019-01-14T21:50:08.238Z,100645.70
2019-01-14T21:52:36.729Z,100657.08
2019-01-14T21:55:08.392Z,100658.39
2019-01-14T21:57:36.811Z,100650.48
2019-01-14T22:00:08.743Z,100647.43
2019-01-14T22:02:37.167Z,100655.76
2019-01-14T22:05:06.346Z,100651.80
2019-01-14T22:07:34.831Z,100657.50
2019-01-14T22:10:04.592Z,100661.89
2019-01-14T22:12:33.015Z,100664.97
2019-01-14T22:15:01.469Z,100669.80
2019-01-14T22:17:29.884Z,100674.60
2019-01-14T22:19:58.309Z,100681.63
2019-01-14T22:22:26.830Z,100690.38
2019-01-14T22:24:55.253Z,100687.37
2019-01-14T22:27:23.743Z,100691.16
2019-01-14T22:29:52.276Z,100694.67
2019-01-14T22:32:20.699Z,100700.37
2019-01-14T22:34:49.191Z,100703.92
2019-01-14T22:37:17.651Z,100706.55
2019-01-14T22:39:46.071Z,100708.81
2019-01-14T22:42:14.516Z,100701.31
2019-01-14T22:44:42.943Z,100704.86
2019-01-14T22:47:11.365Z,100702.67
2019-01-14T22:49:39.788Z,100708.32
2019-01-14T22:52:08.307Z,100707.00
2019-01-14T22:54:36.730Z,100709.67
2019-01-14T22:57:05.152Z,100718.84
2019-01-14T22:59:33.639Z,100715.37
2019-01-14T23:02:02.064Z,100718.99
2019-01-14T23:04:30.552Z,100730.30
2019-01-14T23:06:59.329Z,100725.48
2019-01-14T23:09:27.753Z,100722.41
2019-01-14T23:11:56.175Z,100725.91
2019-01-14T23:14:24.699Z,100730.73
2019-01-14T23:16:53.119Z,100725.91
2019-01-14T23:19:21.546Z,100717.97
2019-01-14T23:21:50.382Z,100720.64
2019-01-14T23:24:18.803Z,100720.27
2019-01-14T23:26:47.223Z,100722.45
2019-01-14T23:29:15.671Z,100718.45
2019-01-14T23:31:44.095Z,100721.97
2019-01-14T23:34:12.582Z,100724.16
2019-01-14T23:36:41.114Z,100724.59
2019-01-14T23:39:09.605Z,100729.41
2019-01-14T23:41:38.023Z,100734.61
2019-01-14T23:44:06.610Z,100736.80
2019-01-14T23:46:35.036Z,100747.68
2019-01-14T23:49:03.460Z,100739.43
2019-01-14T23:51:32.003Z,100742.48
2019-01-14T23:54:00.418Z,100752.07
2019-01-14T23:56:28.844Z,100747.17
2019-01-14T23:58:57.291Z,100749.88
